createdAt,value
2022-08-19T00:08:42.838Z,97452.50
2022-08-19T00:18:45.607Z,97462.13
2022-08-19T00:28:48.771Z,97454.56
2022-08-19T00:38:54.236Z,97450.22
2022-08-19T00:48:58.884Z,97450.88
2022-08-19T00:59:03.351Z,97459.72
2022-08-19T01:09:07.050Z,97456.34
2022-08-19T01:19:26.575Z,97447.47
2022-08-19T01:29:30.481Z,97440.22
2022-08-19T01:39:33.514Z,97446.97
2022-08-19T01:49:36.435Z,97432.34
2022-08-19T01:59:41.360Z,97445.88
2022-08-19T02:09:43.802Z,97460.00
2022-08-19T02:19:46.127Z,97459.34
2022-08-19T02:29:51.022Z,97457.13
2022-08-19T02:39:53.652Z,97455.03
2022-08-19T02:49:56.115Z,97446.97
2022-08-19T02:59:58.858Z,97445.22
2022-08-19T03:10:01.184Z,97451.66
2022-08-19T03:20:04.711Z,97446.84
2022-08-19T03:30:08.168Z,97459.03
2022-08-19T03:40:14.636Z,97471.37
2022-08-19T03:50:20.784Z,97465.75
2022-08-19T04:00:23.431Z,97459.34
2022-08-19T04:10:26.354Z,97447.13
2022-08-19T04:20:28.910Z,97468.50
2022-08-19T04:30:31.476Z,97486.19
2022-08-19T04:40:52.930Z,97476.22
2022-08-19T04:51:00.542Z,97495.97
2022-08-19T05:01:03.631Z,97484.22
2022-08-19T05:11:16.717Z,97495.31
2022-08-19T05:21:40.830Z,97503.03
2022-08-19T05:31:45.487Z,97514.94
2022-08-19T05:41:53.919Z,97519.78
2022-08-19T05:51:59.753Z,97541.50
2022-08-19T06:02:05.409Z,97539.75
2022-08-19T06:12:10.840Z,97543.97
2022-08-19T06:22:19.202Z,97554.59
2022-08-19T06:32:26.616Z,97565.06
2022-08-19T06:42:34.521Z,97568.44
2022-08-19T06:52:42.604Z,97563.78
2022-08-19T07:02:52.439Z,97567.50
2022-08-19T07:13:00.526Z,97568.34
2022-08-19T07:23:33.806Z,97580.44
2022-08-19T07:34:43.246Z,97591.31
2022-08-19T07:44:50.448Z,97607.91
2022-08-19T07:54:57.747Z,97607.44
2022-08-19T08:05:20.340Z,97612.25
2022-08-19T08:15:35.681Z,97613.03
2022-08-19T08:26:00.007Z,97640.09
2022-08-19T08:36:07.376Z,97646.87
2022-08-19T08:46:42.446Z,97643.75
2022-08-19T08:56:54.841Z,97662.28
2022-08-19T09:07:49.933Z,97684.50
2022-08-19T09:17:58.479Z,97677.81
2022-08-19T09:28:15.526Z,97692.72
2022-08-19T09:38:43.624Z,97710.12
2022-08-19T09:48:51.098Z,97719.97
2022-08-19T09:59:06.397Z,97720.13
2022-08-19T10:09:33.989Z,97725.00
2022-08-19T10:19:52.685Z,97735.53
2022-08-19T10:30:10.027Z,97729.06
2022-08-19T10:40:17.408Z,97732.44
2022-08-19T10:50:41.054Z,97732.56
2022-08-19T11:01:04.312Z,97733.09
2022-08-19T11:11:17.411Z,97725.94
2022-08-19T11:21:28.400Z,97718.28
2022-08-19T11:31:35.004Z,97720.56
2022-08-19T11:41:39.664Z,97718.38
2022-08-19T11:51:46.120Z,97727.69
2022-08-19T12:01:54.531Z,97733.62
2022-08-19T12:12:02.680Z,97730.63
2022-08-19T12:22:09.242Z,97741.06
2022-08-19T12:32:12.440Z,97736.56
2022-08-19T12:42:21.204Z,97728.78
2022-08-19T12:52:28.424Z,97725.00
2022-08-19T13:02:38.470Z,97734.38
2022-08-19T13:12:46.371Z,97736.56
2022-08-19T13:22:52.769Z,97741.62
2022-08-19T13:33:16.006Z,97739.34
2022-08-19T13:43:24.078Z,97732.63
2022-08-19T13:53:28.084Z,97722.87
2022-08-19T14:03:33.168Z,97711.84
2022-08-19T14:13:36.902Z,97714.94
2022-08-19T14:23:40.598Z,97742.81
2022-08-19T14:33:44.560Z,97757.69
2022-08-19T14:43:49.664Z,97761.88
2022-08-19T14:53:54.768Z,97763.44
2022-08-19T15:03:58.409Z,97747.34
2022-08-19T15:14:02.801Z,97747.53
2022-08-19T15:24:06.725Z,97745.53
2022-08-19T15:34:09.773Z,97736.94
2022-08-19T15:44:19.064Z,97738.81
2022-08-19T15:54:23.354Z,97740.53
2022-08-19T16:04:45.440Z,97741.47
2022-08-19T16:14:50.153Z,97750.19
2022-08-19T16:24:53.244Z,97760.37
2022-08-19T16:34:56.245Z,97754.91
2022-08-19T16:45:01.285Z,97746.19
2022-08-19T16:55:06.790Z,97751.81
2022-08-19T17:05:11.517Z,97758.41
2022-08-19T17:15:14.735Z,97762.13
2022-08-19T17:25:19.005Z,97753.28
2022-08-19T17:35:24.448Z,97768.69
2022-08-19T17:45:28.737Z,97762.72
2022-08-19T17:55:31.949Z,97756.91
2022-08-19T18:05:41.553Z,97751.13
2022-08-19T18:15:46.340Z,97749.47
2022-08-19T18:25:50.224Z,97755.09
2022-08-19T18:35:54.378Z,97759.28
2022-08-19T18:46:16.091Z,97779.19
2022-08-19T18:56:20.941Z,97800.78
2022-08-19T19:06:30.968Z,97808.63
2022-08-19T19:16:33.921Z,97822.84
2022-08-19T19:26:37.566Z,97817.59
2022-08-19T19:36:41.195Z,97825.00
2022-08-19T19:46:45.392Z,97837.13
2022-08-19T19:56:51.048Z,97839.75
2022-08-19T20:06:54.034Z,97848.25
2022-08-19T20:16:58.518Z,97859.81
2022-08-19T20:27:03.151Z,97863.66
2022-08-19T20:37:06.180Z,97876.03
2022-08-19T20:47:09.018Z,97878.47
2022-08-19T20:57:11.764Z,97881.50
2022-08-19T21:07:15.878Z,97885.53
2022-08-19T21:17:18.938Z,97878.25
2022-08-19T21:27:23.079Z,97877.44
2022-08-19T21:37:26.330Z,97882.50
2022-08-19T21:47:29.167Z,97894.19
2022-08-19T21:57:31.805Z,97894.34
2022-08-19T22:07:34.373Z,97895.34
2022-08-19T22:17:37.236Z,97891.88
2022-08-19T22:27:40.723Z,97913.44
2022-08-19T22:37:44.052Z,97914.22
2022-08-19T22:47:47.040Z,97911.59
2022-08-19T22:57:49.767Z,97916.97
2022-08-19T23:07:53.046Z,97920.34
2022-08-19T23:17:58.538Z,97915.00
2022-08-19T23:28:20.323Z,97908.00
2022-08-19T23:38:24.154Z,97900.44
2022-08-19T23:48:28.330Z,97882.59
2022-08-19T23:58:32.479Z,97875.50
